Time;durP1;ratioP1;P1;durP2;ratioP2;P2;SDS_P1;SDS_P2;PMS_P1;PMS_P2;Temp;Humidity;BMP_temperature;BMP_pressure;BME280_temperature;BME280_humidity;BME280_pressure;Samples;Min_cycle;Max_cycle;Signal;HPM_P1;HPM_P2
2022/04/12 00:01:35;;;;;;;5.40;4.47;;;13.40;46.60;;;;;;5030963;28;20195;-48
2022/04/12 00:04:02;;;;;;;5.23;4.73;;;13.60;46.40;;;;;;5032822;28;20280;-51
2022/04/12 00:06:28;;;;;;;4.90;4.30;;;13.70;46.10;;;;;;5031656;28;20431;-49
2022/04/12 00:08:54;;;;;;;4.70;4.00;;;13.70;46.00;;;;;;5032608;28;20796;-47
2022/04/12 00:11:19;;;;;;;5.30;4.40;;;13.60;46.30;;;;;;5032017;28;20428;-47
2022/04/12 00:13:45;;;;;;;5.00;4.23;;;13.50;46.40;;;;;;5032538;28;20280;-48
2022/04/12 00:16:10;;;;;;;6.23;4.60;;;13.70;46.20;;;;;;5031879;28;20243;-51
2022/04/12 00:21:20;;;;;;;5.60;4.40;;;13.50;46.40;;;;;;5031738;28;20200;-47
2022/04/12 00:23:46;;;;;;;4.47;4.07;;;13.50;46.40;;;;;;5032410;28;20476;-48
2022/04/12 00:26:12;;;;;;;4.07;3.77;;;13.20;46.80;;;;;;5031365;28;20204;-48
2022/04/12 00:28:40;;;;;;;4.73;4.03;;;13.10;46.80;;;;;;5030411;28;20519;-50
2022/04/12 00:31:06;;;;;;;4.67;4.27;;;13.10;46.90;;;;;;5031622;28;20428;-46
2022/04/12 00:33:32;;;;;;;5.47;4.40;;;13.20;46.90;;;;;;5032489;28;20477;-50
2022/04/12 00:36:00;;;;;;;5.50;4.17;;;13.00;46.90;;;;;;5031222;28;20197;-48
2022/04/12 00:38:27;;;;;;;4.80;3.90;;;13.10;47.10;;;;;;5031881;28;20205;-49
2022/04/12 00:40:54;;;;;;;3.90;3.30;;;13.30;46.80;;;;;;5031486;28;20462;-47
2022/04/12 00:43:20;;;;;;;7.70;4.93;;;13.30;46.70;;;;;;5031880;28;20579;-50
2022/04/12 00:45:47;;;;;;;5.00;4.30;;;13.50;46.40;;;;;;5014337;28;20431;-47
2022/04/12 00:48:13;;;;;;;5.60;5.00;;;13.70;46.10;;;;;;5010885;28;20420;-47
2022/04/12 00:50:40;;;;;;;5.77;4.17;;;13.80;46.20;;;;;;5031192;28;20432;-46
2022/04/12 00:53:08;;;;;;;8.50;4.60;;;13.90;45.80;;;;;;5031726;28;20460;-51
2022/04/12 00:55:34;;;;;;;5.43;4.93;;;14.00;45.70;;;;;;5029513;28;20515;-50
2022/04/12 00:58:05;;;;;;;4.93;4.53;;;14.10;46.20;;;;;;5030699;28;20440;-47
2022/04/12 01:00:32;;;;;;;4.63;4.20;;;14.10;45.40;;;;;;5031178;28;20439;-46
2022/04/12 01:02:58;;;;;;;4.50;4.10;;;14.10;45.10;;;;;;5031531;28;20519;-49
2022/04/12 01:05:24;;;;;;;5.10;4.03;;;14.20;45.10;;;;;;5030879;28;20809;-47
2022/04/12 01:07:50;;;;;;;5.07;4.30;;;14.10;45.10;;;;;;5031072;28;20443;-50
2022/04/12 01:10:16;;;;;;;4.40;4.00;;;14.10;45.00;;;;;;5030868;28;20431;-47
2022/04/12 01:12:42;;;;;;;5.03;4.23;;;14.10;45.10;;;;;;5031338;28;20200;-49
2022/04/12 01:15:18;;;;;;;5.90;4.93;;;14.00;45.30;;;;;;5030553;28;20197;-46
2022/04/12 01:17:46;;;;;;;5.23;4.30;;;14.00;45.60;;;;;;5031110;28;20436;-47
2022/04/12 01:20:13;;;;;;;6.10;4.07;;;14.00;45.50;;;;;;5030608;28;20428;-48
2022/04/12 01:22:52;;;;;;;4.40;3.70;;;14.00;45.60;;;;;;5029381;28;20464;-46
2022/04/12 01:25:22;;;;;;;9.00;4.80;;;13.90;45.60;;;;;;5030604;28;20479;-46
2022/04/12 01:27:48;;;;;;;4.80;4.00;;;13.90;45.70;;;;;;5030899;28;20468;-49
2022/04/12 01:30:14;;;;;;;5.07;4.67;;;13.90;45.70;;;;;;5030304;28;20472;-47
2022/04/12 01:32:40;;;;;;;4.40;3.33;;;13.90;45.80;;;;;;5031111;28;20350;-46
2022/04/12 01:35:06;;;;;;;5.40;3.63;;;13.70;46.00;;;;;;5030530;28;20499;-46
2022/04/12 01:37:32;;;;;;;4.87;4.10;;;13.70;46.10;;;;;;5030731;28;20201;-46
2022/04/12 01:39:57;;;;;;;5.13;3.93;;;13.00;47.20;;;;;;5030315;28;20432;-46
2022/04/12 01:42:23;;;;;;;4.60;3.73;;;12.90;47.80;;;;;;5031145;28;20689;-46
2022/04/12 01:44:49;;;;;;;4.10;3.80;;;13.10;47.70;;;;;;5021397;28;20311;-46
2022/04/12 01:47:15;;;;;;;4.03;3.70;;;13.20;47.50;;;;;;5001973;28;20666;-47
2022/04/12 01:49:40;;;;;;;4.73;4.33;;;13.20;47.30;;;;;;4995854;28;20568;-46
2022/04/12 01:52:06;;;;;;;4.27;3.97;;;13.20;47.30;;;;;;5011249;28;20425;-46
2022/04/12 01:54:32;;;;;;;4.27;3.73;;;13.20;47.30;;;;;;5010460;28;20653;-47
2022/04/12 01:56:58;;;;;;;3.87;3.53;;;13.20;47.30;;;;;;5010575;28;20795;-47
2022/04/12 01:59:23;;;;;;;4.93;4.43;;;12.90;47.90;;;;;;5010554;28;20190;-46
2022/04/12 02:01:49;;;;;;;5.67;3.83;;;12.90;48.20;;;;;;5010816;28;20667;-46
2022/04/12 02:04:14;;;;;;;7.20;4.87;;;12.60;48.80;;;;;;5010613;28;20221;-46
2022/04/12 02:06:40;;;;;;;7.33;4.50;;;12.70;49.00;;;;;;5009705;28;20204;-48
2022/04/12 02:09:05;;;;;;;4.50;4.10;;;12.80;48.90;;;;;;5010902;28;20197;-49
2022/04/12 02:11:31;;;;;;;4.40;4.00;;;12.80;48.70;;;;;;5010245;28;20186;-46
2022/04/12 02:13:56;;;;;;;5.10;3.57;;;13.00;48.40;;;;;;5010576;28;20189;-46
2022/04/12 02:16:23;;;;;;;3.77;3.37;;;13.00;48.20;;;;;;5008091;28;20201;-47
2022/04/12 02:18:48;;;;;;;6.77;4.27;;;13.00;48.10;;;;;;5010686;28;20613;-50
2022/04/12 02:21:14;;;;;;;8.00;3.97;;;12.90;48.10;;;;;;5009935;28;20426;-46
2022/04/12 02:23:40;;;;;;;5.60;3.80;;;12.80;48.50;;;;;;5010466;28;20685;-46
2022/04/12 02:26:05;;;;;;;5.00;3.93;;;12.60;49.10;;;;;;5010066;28;20423;-48
2022/04/12 02:28:31;;;;;;;3.97;3.60;;;12.40;49.70;;;;;;5010630;28;20260;-51
2022/04/12 02:30:57;;;;;;;4.70;4.30;;;12.40;49.80;;;;;;5009877;28;20238;-49
2022/04/12 02:33:22;;;;;;;4.83;4.00;;;12.40;50.10;;;;;;5010681;28;20205;-46
2022/04/12 02:35:48;;;;;;;5.07;4.07;;;12.40;49.80;;;;;;5009615;28;20205;-47
2022/04/12 02:38:13;;;;;;;4.40;4.00;;;12.50;49.50;;;;;;5010396;28;20194;-46
2022/04/12 02:40:39;;;;;;;4.67;3.87;;;12.50;49.40;;;;;;5009781;28;20190;-49
2022/04/12 02:43:05;;;;;;;4.93;4.00;;;12.30;49.90;;;;;;5008769;28;20190;-47
2022/04/12 02:45:30;;;;;;;4.17;3.77;;;12.30;49.90;;;;;;5009892;28;20623;-46
2022/04/12 02:47:56;;;;;;;8.03;3.97;;;12.30;49.90;;;;;;5007178;28;20211;-46
2022/04/12 02:50:22;;;;;;;4.63;4.10;;;12.30;49.80;;;;;;5029397;28;20217;-46
2022/04/12 02:52:48;;;;;;;5.57;4.63;;;12.40;49.70;;;;;;5030177;28;20223;-48
2022/04/12 02:55:13;;;;;;;4.50;4.00;;;12.40;49.30;;;;;;5029691;28;20983;-47
2022/04/12 02:57:39;;;;;;;4.27;3.57;;;12.40;50.20;;;;;;5029837;28;20648;-50
2022/04/12 03:00:06;;;;;;;4.57;3.90;;;12.40;49.60;;;;;;5028153;28;20255;-46
2022/04/12 03:02:31;;;;;;;5.80;4.50;;;12.50;49.50;;;;;;5030090;28;20212;-48
2022/04/12 03:04:57;;;;;;;6.13;3.97;;;12.50;49.20;;;;;;5029464;28;20487;-50
2022/04/12 03:07:22;;;;;;;5.13;4.07;;;12.60;49.20;;;;;;5029634;28;20280;-46
2022/04/12 03:09:49;;;;;;;6.80;4.70;;;12.50;49.10;;;;;;5027863;28;20189;-48
2022/04/12 03:12:15;;;;;;;4.60;4.20;;;12.50;49.40;;;;;;5027447;28;20193;-48
2022/04/12 03:14:40;;;;;;;4.30;4.00;;;12.30;49.50;;;;;;5029401;28;20435;-51
2022/04/12 03:17:06;;;;;;;5.27;4.07;;;12.30;49.70;;;;;;5029652;28;20680;-48
2022/04/12 03:19:32;;;;;;;4.87;3.63;;;12.30;49.70;;;;;;5029697;28;20568;-46
2022/04/12 03:21:57;;;;;;;5.33;3.73;;;12.30;49.60;;;;;;5031854;28;20254;-46
2022/04/12 03:24:23;;;;;;;4.60;3.90;;;12.30;49.70;;;;;;5033091;28;20235;-48
2022/04/12 03:26:49;;;;;;;6.40;4.23;;;12.30;49.70;;;;;;5032666;28;20567;-50
2022/04/12 03:29:16;;;;;;;5.17;4.07;;;12.30;49.70;;;;;;5033410;28;20196;-46
2022/04/12 03:31:42;;;;;;;6.40;3.90;;;12.40;49.50;;;;;;5032755;28;20447;-49
2022/04/12 03:34:08;;;;;;;9.97;4.20;;;12.20;49.50;;;;;;5033213;28;20432;-46
2022/04/12 03:36:33;;;;;;;4.07;3.70;;;12.00;50.20;;;;;;5030777;28;20201;-46
2022/04/12 03:38:59;;;;;;;8.13;4.63;;;11.90;50.50;;;;;;5033458;28;20427;-49
2022/04/12 03:41:25;;;;;;;8.43;3.70;;;11.80;50.60;;;;;;5032535;28;20653;-47
2022/04/12 03:43:51;;;;;;;4.87;4.37;;;11.80;50.50;;;;;;5032172;28;20336;-48
2022/04/12 03:46:17;;;;;;;5.00;3.97;;;11.80;50.60;;;;;;5011580;28;20649;-47
2022/04/12 03:48:43;;;;;;;4.50;4.10;;;11.50;51.10;;;;;;5005626;28;20423;-48
2022/04/12 03:51:09;;;;;;;5.90;4.27;;;11.30;52.10;;;;;;5012417;28;20202;-48
2022/04/12 03:53:36;;;;;;;3.93;3.57;;;11.30;51.90;;;;;;5013240;28;20461;-46
2022/04/12 03:56:07;;;;;;;4.33;3.93;;;11.30;52.00;;;;;;5011937;28;21075;-50
2022/04/12 03:58:38;;;;;;;6.40;3.93;;;11.20;52.00;;;;;;5013155;28;20429;-46
2022/04/12 04:01:05;;;;;;;3.73;3.40;;;11.10;52.10;;;;;;5012579;28;20456;-51
2022/04/12 04:03:31;;;;;;;5.73;3.70;;;11.10;52.50;;;;;;5011247;28;20472;-47
2022/04/12 04:05:56;;;;;;;4.83;3.73;;;11.20;52.40;;;;;;5011961;28;21362;-47
2022/04/12 04:08:22;;;;;;;4.20;3.57;;;11.20;52.10;;;;;;5012947;28;20444;-50
2022/04/12 04:10:48;;;;;;;4.97;3.23;;;11.20;52.20;;;;;;5012582;28;20653;-49
2022/04/12 04:13:14;;;;;;;4.93;3.63;;;11.30;51.90;;;;;;5012710;28;20186;-48
2022/04/12 04:15:40;;;;;;;3.93;3.63;;;11.40;51.80;;;;;;5011596;28;20580;-49
2022/04/12 04:18:07;;;;;;;5.53;3.73;;;11.50;51.70;;;;;;5012682;28;20441;-50
2022/04/12 04:20:33;;;;;;;4.20;3.80;;;11.40;51.60;;;;;;5012342;28;20429;-48
2022/04/12 04:22:59;;;;;;;4.40;4.00;;;11.30;51.70;;;;;;5012639;28;20939;-48
2022/04/12 04:25:24;;;;;;;5.00;3.63;;;11.30;52.00;;;;;;5011882;28;20233;-50
2022/04/12 04:27:50;;;;;;;4.73;4.10;;;11.10;52.10;;;;;;5011879;28;20278;-46
2022/04/12 04:30:17;;;;;;;4.93;4.20;;;10.90;52.40;;;;;;5010265;28;20252;-47
2022/04/12 04:32:43;;;;;;;4.17;3.23;;;10.60;53.10;;;;;;5011372;28;20205;-47
2022/04/12 04:35:09;;;;;;;4.57;4.10;;;10.70;53.50;;;;;;5011824;28;20429;-49
2022/04/12 04:37:50;;;;;;;5.00;4.50;;;10.60;53.60;;;;;;5011794;28;20674;-48
2022/04/12 04:40:23;;;;;;;5.37;4.30;;;10.70;53.40;;;;;;5011770;28;20521;-50
2022/04/12 04:42:52;;;;;;;4.73;4.13;;;10.70;53.20;;;;;;5011958;28;20464;-48
2022/04/12 04:45:18;;;;;;;5.27;4.50;;;10.60;53.50;;;;;;5011320;28;20492;-48
2022/04/12 04:47:56;;;;;;;5.23;4.73;;;10.50;53.70;;;;;;5006893;28;20432;-47
2022/04/12 04:50:23;;;;;;;4.53;4.13;;;10.70;53.60;;;;;;5031111;28;20438;-47
2022/04/12 04:52:49;;;;;;;4.27;3.87;;;10.70;53.50;;;;;;5031664;28;20420;-47
2022/04/12 04:55:16;;;;;;;4.20;3.63;;;10.70;53.50;;;;;;5030843;28;20444;-46
2022/04/12 04:57:43;;;;;;;5.00;4.60;;;10.80;53.40;;;;;;5029772;28;20502;-51
2022/04/12 05:00:16;;;;;;;4.53;4.13;;;11.00;53.10;;;;;;5031200;28;20433;-51
2022/04/12 05:02:46;;;;;;;5.80;4.20;;;10.90;53.50;;;;;;5031397;28;20428;-49
2022/04/12 05:05:12;;;;;;;5.00;4.03;;;11.00;53.20;;;;;;5030843;28;20570;-50
2022/04/12 05:07:39;;;;;;;4.40;4.00;;;11.20;52.70;;;;;;5030964;28;20915;-50
2022/04/12 05:10:05;;;;;;;6.73;4.60;;;11.40;52.20;;;;;;5030969;28;20515;-47
2022/04/12 05:12:31;;;;;;;6.37;4.33;;;11.50;52.00;;;;;;5031375;28;20511;-51
2022/04/12 05:14:56;;;;;;;5.43;4.20;;;11.50;51.80;;;;;;5030834;28;20519;-51
2022/04/12 05:17:26;;;;;;;8.13;4.27;;;11.40;52.40;;;;;;5030964;28;20193;-51
2022/04/12 05:19:52;;;;;;;4.20;3.80;;;11.30;52.10;;;;;;5030645;28;20276;-51
2022/04/12 05:22:18;;;;;;;5.10;4.10;;;11.10;52.50;;;;;;5031150;28;20836;-47
2022/04/12 05:24:44;;;;;;;6.67;4.60;;;10.90;53.20;;;;;;5028931;28;20526;-50
2022/04/12 05:27:10;;;;;;;5.07;4.00;;;10.80;53.50;;;;;;5030868;28;20189;-47
2022/04/12 05:29:36;;;;;;;4.53;4.13;;;10.90;53.60;;;;;;5030482;28;20999;-48
2022/04/12 05:32:02;;;;;;;6.20;5.30;;;11.10;53.10;;;;;;5031292;28;20656;-50
2022/04/12 05:34:28;;;;;;;6.70;5.33;;;11.00;53.10;;;;;;5030319;28;20505;-50
2022/04/12 05:36:54;;;;;;;6.30;4.40;;;10.90;53.50;;;;;;5030810;28;20428;-49
2022/04/12 05:39:19;;;;;;;4.70;4.20;;;11.00;53.30;;;;;;5030908;28;20225;-49
2022/04/12 05:41:45;;;;;;;5.57;4.97;;;11.20;53.30;;;;;;5030119;28;20652;-48
2022/04/12 05:44:10;;;;;;;5.30;4.80;;;11.40;53.10;;;;;;5027015;28;20641;-48
2022/04/12 05:46:36;;;;;;;4.80;4.20;;;11.50;52.90;;;;;;5006974;28;20218;-49
2022/04/12 05:49:01;;;;;;;5.03;4.47;;;11.30;53.20;;;;;;5020303;28;20197;-51
2022/04/12 05:51:27;;;;;;;5.30;4.57;;;11.20;53.40;;;;;;5028598;28;20664;-50
2022/04/12 05:53:53;;;;;;;5.23;4.23;;;11.20;53.40;;;;;;5030494;28;20225;-51
2022/04/12 05:56:18;;;;;;;5.13;4.63;;;11.30;53.60;;;;;;5029869;28;20597;-51
2022/04/12 05:58:44;;;;;;;5.80;4.20;;;11.30;53.80;;;;;;5030798;28;20193;-51
2022/04/12 06:01:09;;;;;;;5.93;5.40;;;11.50;53.40;;;;;;5029988;28;20204;-52
2022/04/12 06:03:35;;;;;;;5.87;4.40;;;11.80;52.80;;;;;;5030550;28;20307;-51
2022/04/12 06:06:00;;;;;;;7.47;4.77;;;11.90;52.40;;;;;;5029694;28;20193;-51
2022/04/12 06:08:26;;;;;;;6.27;5.17;;;11.90;52.40;;;;;;5030466;28;20197;-51
2022/04/12 06:10:52;;;;;;;5.23;4.70;;;12.00;52.20;;;;;;5030192;28;20208;-50
2022/04/12 06:13:18;;;;;;;5.50;4.73;;;11.90;52.20;;;;;;5030512;28;20283;-48
2022/04/12 06:15:44;;;;;;;6.13;5.30;;;12.10;52.20;;;;;;5029670;28;20503;-46
2022/04/12 06:18:10;;;;;;;6.17;5.00;;;12.30;51.90;;;;;;5028763;28;21001;-46
2022/04/12 06:20:36;;;;;;;6.07;4.60;;;12.50;51.60;;;;;;5029908;28;20197;-46
2022/04/12 06:23:03;;;;;;;5.90;4.73;;;12.50;51.00;;;;;;5030683;28;20512;-46
2022/04/12 06:25:28;;;;;;;6.07;4.70;;;12.40;51.30;;;;;;5029484;28;20483;-48
2022/04/12 06:27:54;;;;;;;5.50;5.00;;;12.40;51.60;;;;;;5030434;28;21024;-46
2022/04/12 06:30:25;;;;;;;5.73;5.23;;;12.40;51.80;;;;;;5023020;28;20556;-46
2022/04/12 06:32:51;;;;;;;5.30;4.67;;;12.50;52.10;;;;;;5010602;28;20653;-47
2022/04/12 06:35:17;;;;;;;5.63;4.97;;;12.70;51.50;;;;;;5010095;28;20582;-47
2022/04/12 06:37:45;;;;;;;7.87;4.23;;;12.80;51.00;;;;;;5010319;28;20527;-46
2022/04/12 06:40:13;;;;;;;5.60;3.73;;;12.80;51.20;;;;;;5010258;28;20431;-47
2022/04/12 06:42:38;;;;;;;4.43;3.80;;;12.70;50.90;;;;;;5010323;28;20433;-48
2022/04/12 06:45:05;;;;;;;4.20;3.80;;;12.90;50.90;;;;;;5008214;28;20491;-46
2022/04/12 06:47:32;;;;;;;5.50;4.97;;;12.80;50.60;;;;;;5003407;28;20433;-48
2022/04/12 06:49:58;;;;;;;6.97;4.10;;;13.10;50.60;;;;;;5029740;28;20435;-46
2022/04/12 06:52:23;;;;;;;8.00;4.40;;;13.50;50.00;;;;;;5030006;28;20773;-46
2022/04/12 06:54:49;;;;;;;7.53;4.40;;;13.60;49.20;;;;;;5029664;28;20565;-49
2022/04/12 06:57:15;;;;;;;4.90;4.13;;;13.50;48.70;;;;;;5032223;28;20255;-47
2022/04/12 06:59:41;;;;;;;4.50;3.63;;;13.40;48.90;;;;;;5033361;28;20434;-46
2022/04/12 07:02:07;;;;;;;4.67;4.23;;;13.40;49.10;;;;;;5032719;28;20440;-47
2022/04/12 07:04:33;;;;;;;5.00;4.40;;;13.60;49.20;;;;;;5033251;28;20256;-46
2022/04/12 07:06:59;;;;;;;4.90;4.20;;;13.90;48.50;;;;;;5033265;28;20839;-47
2022/04/12 07:09:27;;;;;;;4.80;4.00;;;14.10;48.20;;;;;;5033293;28;20235;-46
2022/04/12 07:11:54;;;;;;;4.87;4.37;;;14.00;48.00;;;;;;5031759;28;20431;-46
2022/04/12 07:14:20;;;;;;;3.80;3.50;;;14.10;48.00;;;;;;5033710;28;20520;-46
2022/04/12 07:16:45;;;;;;;4.50;3.80;;;14.30;48.30;;;;;;5032670;28;20502;-46
2022/04/12 07:19:11;;;;;;;6.07;4.80;;;14.60;46.90;;;;;;5033335;28;20190;-46
2022/04/12 07:21:37;;;;;;;4.73;4.30;;;14.60;46.30;;;;;;5033046;28;20277;-47
2022/04/12 07:24:03;;;;;;;5.83;4.37;;;14.70;46.50;;;;;;5033545;28;20245;-47
2022/04/12 07:26:30;;;;;;;7.13;4.00;;;14.80;46.40;;;;;;5032651;28;20201;-46
2022/04/12 07:28:56;;;;;;;6.10;4.23;;;15.10;46.40;;;;;;5033452;28;20420;-46
2022/04/12 07:31:21;;;;;;;6.07;4.73;;;15.50;45.80;;;;;;5032602;28;20519;-46
2022/04/12 07:33:47;;;;;;;7.10;4.10;;;15.50;45.00;;;;;;5033297;28;20193;-46
2022/04/12 07:36:12;;;;;;;4.43;3.63;;;15.50;44.30;;;;;;5032388;28;20237;-46
2022/04/12 07:38:38;;;;;;;5.07;3.90;;;15.60;44.50;;;;;;5031389;28;20205;-47
2022/04/12 07:41:04;;;;;;;6.23;3.73;;;15.90;44.50;;;;;;5032513;28;20272;-47
2022/04/12 07:43:30;;;;;;;4.80;4.27;;;16.10;43.80;;;;;;5032906;28;20295;-46
2022/04/12 07:45:56;;;;;;;5.83;4.03;;;16.30;43.80;;;;;;5014301;28;20421;-46
2022/04/12 07:48:21;;;;;;;4.47;3.60;;;16.40;43.90;;;;;;5014295;28;20262;-46
2022/04/12 07:50:47;;;;;;;3.87;3.47;;;16.80;43.30;;;;;;5032288;28;20212;-47
2022/04/12 07:53:13;;;;;;;4.67;4.23;;;16.80;42.70;;;;;;5032973;28;20232;-47
2022/04/12 07:55:38;;;;;;;4.50;3.93;;;16.90;42.50;;;;;;5032196;28;20280;-47
2022/04/12 07:58:04;;;;;;;3.83;3.50;;;17.30;42.30;;;;;;5032959;28;20275;-47
2022/04/12 08:00:30;;;;;;;3.47;3.13;;;17.70;42.10;;;;;;5032384;28;20198;-46
2022/04/12 08:02:55;;;;;;;3.87;3.53;;;17.90;41.70;;;;;;5032696;28;20189;-46
2022/04/12 08:05:21;;;;;;;4.47;4.07;;;18.00;40.70;;;;;;5029837;28;20228;-46
2022/04/12 08:07:49;;;;;;;3.60;3.30;;;18.20;40.40;;;;;;5032613;28;20193;-46
2022/04/12 08:10:19;;;;;;;4.47;3.73;;;18.50;40.40;;;;;;5032154;28;20251;-47
2022/04/12 08:12:46;;;;;;;4.83;3.20;;;18.60;40.00;;;;;;5032709;28;20424;-50
2022/04/12 08:15:14;;;;;;;5.90;3.20;;;18.90;39.70;;;;;;5032085;28;20535;-49
2022/04/12 08:17:40;;;;;;;4.00;3.37;;;18.90;39.90;;;;;;5032727;28;20523;-47
2022/04/12 08:20:08;;;;;;;6.53;3.53;;;19.20;39.30;;;;;;5031950;28;20455;-46
2022/04/12 08:22:34;;;;;;;4.87;3.20;;;19.50;38.10;;;;;;5032385;28;20440;-47
2022/04/12 08:25:00;;;;;;;6.00;2.93;;;19.70;38.40;;;;;;5031760;28;20597;-46
2022/04/12 08:27:26;;;;;;;4.73;3.67;;;19.80;37.90;;;;;;5031835;28;20666;-51
2022/04/12 08:29:51;;;;;;;5.20;3.50;;;20.00;37.80;;;;;;5031817;28;20181;-48
2022/04/12 08:32:17;;;;;;;2.63;2.43;;;20.20;37.50;;;;;;5030617;28;20428;-49
2022/04/12 08:34:44;;;;;;;3.37;2.73;;;20.40;36.80;;;;;;5031484;28;20201;-51
2022/04/12 08:37:10;;;;;;;3.73;3.20;;;20.50;36.50;;;;;;5031992;28;20490;-47
2022/04/12 08:39:36;;;;;;;4.37;3.10;;;20.80;36.10;;;;;;5031753;28;20432;-52
2022/04/12 08:42:03;;;;;;;2.87;2.60;;;20.90;36.00;;;;;;5031896;28;20510;-47
2022/04/12 08:44:30;;;;;;;4.27;2.87;;;21.00;35.60;;;;;;5025061;28;20602;-50
2022/04/12 08:46:57;;;;;;;3.20;2.90;;;21.20;36.50;;;;;;5005842;28;20441;-46
2022/04/12 08:49:27;;;;;;;3.00;2.80;;;21.20;35.70;;;;;;5026417;28;20432;-47
2022/04/12 08:51:53;;;;;;;3.20;2.80;;;21.20;35.70;;;;;;5031935;28;20428;-47
2022/04/12 08:54:19;;;;;;;3.23;2.93;;;21.40;35.70;;;;;;5031916;28;20511;-51
2022/04/12 08:56:50;;;;;;;4.77;3.30;;;21.60;35.60;;;;;;5030763;28;20431;-49
2022/04/12 08:59:16;;;;;;;3.07;2.77;;;21.70;35.00;;;;;;5029921;28;20428;-50
2022/04/12 09:01:43;;;;;;;3.50;2.80;;;21.70;34.90;;;;;;5031233;28;20424;-46
2022/04/12 09:04:12;;;;;;;4.47;3.00;;;21.80;35.30;;;;;;5031548;28;21141;-48
2022/04/12 09:06:51;;;;;;;3.63;2.77;;;22.00;34.90;;;;;;5030609;28;20420;-48
2022/04/12 09:09:19;;;;;;;5.53;2.83;;;22.30;35.20;;;;;;5031528;28;20444;-52
2022/04/12 09:11:59;;;;;;;2.87;2.60;;;22.50;34.90;;;;;;5030989;28;20432;-47
2022/04/12 09:14:34;;;;;;;5.73;2.40;;;22.60;34.30;;;;;;5031382;28;20519;-51
2022/04/12 09:17:00;;;;;;;3.27;2.77;;;22.80;33.50;;;;;;5030846;28;20428;-46
2022/04/12 09:19:42;;;;;;;4.33;2.90;;;22.90;33.50;;;;;;5030604;28;20428;-49
2022/04/12 09:22:17;;;;;;;3.10;2.80;;;23.10;33.20;;;;;;5031288;28;20201;-50
2022/04/12 09:24:45;;;;;;;2.70;2.50;;;23.30;33.60;;;;;;5030598;28;20490;-53
2022/04/12 09:27:12;;;;;;;4.27;2.43;;;23.40;32.70;;;;;;5029090;28;20436;-50
2022/04/12 09:29:49;;;;;;;2.80;2.53;;;23.50;32.40;;;;;;5030851;28;20485;-47
2022/04/12 09:32:15;;;;;;;4.77;2.83;;;23.70;32.00;;;;;;5031285;28;20511;-48
2022/04/12 09:34:45;;;;;;;2.40;2.20;;;23.60;30.70;;;;;;5030476;28;20419;-47
2022/04/12 09:37:22;;;;;;;2.47;2.10;;;23.50;31.60;;;;;;5030543;28;20420;-47
2022/04/12 09:39:58;;;;;;;2.40;2.20;;;23.70;31.80;;;;;;5030579;28;20427;-49
2022/04/12 09:42:44;;;;;;;3.13;2.60;;;24.00;31.80;;;;;;5031070;28;20796;-48
2022/04/12 09:45:12;;;;;;;4.87;2.13;;;24.30;32.40;;;;;;5018010;28;20492;-49
2022/04/12 09:47:39;;;;;;;2.30;1.73;;;24.30;30.00;;;;;;5005335;28;20436;-49
2022/04/12 09:50:05;;;;;;;5.17;2.30;;;24.40;30.70;;;;;;5030501;28;20781;-48
2022/04/12 09:52:31;;;;;;;3.30;2.17;;;24.50;30.30;;;;;;5030791;28;20424;-48
2022/04/12 09:54:57;;;;;;;2.40;2.17;;;24.80;30.00;;;;;;5028523;28;20438;-51
2022/04/12 09:57:25;;;;;;;3.37;2.13;;;24.80;29.40;;;;;;5030113;28;20248;-49
2022/04/12 09:59:55;;;;;;;2.27;2.07;;;25.00;30.50;;;;;;5030219;28;20919;-50
2022/04/12 10:02:21;;;;;;;2.97;2.20;;;25.30;30.20;;;;;;5030690;28;20975;-48
2022/04/12 10:04:50;;;;;;;3.63;2.47;;;25.50;29.40;;;;;;5030155;28;21009;-50
2022/04/12 10:07:18;;;;;;;2.20;2.00;;;25.30;29.00;;;;;;5030201;28;20424;-52
2022/04/12 10:09:44;;;;;;;4.20;2.43;;;25.40;29.00;;;;;;5029953;28;20876;-48
2022/04/12 10:12:10;;;;;;;2.30;2.10;;;25.70;29.10;;;;;;5030507;28;20440;-50
2022/04/12 10:14:37;;;;;;;2.17;1.97;;;25.90;29.30;;;;;;5030114;28;20432;-50
2022/04/12 10:17:04;;;;;;;3.73;2.20;;;25.80;28.30;;;;;;5030400;28;20196;-47
2022/04/12 10:19:29;;;;;;;3.40;2.37;;;25.70;29.30;;;;;;5029776;28;20996;-50
2022/04/12 10:21:55;;;;;;;2.00;1.80;;;25.90;29.80;;;;;;5028810;28;20511;-51
2022/04/12 10:24:22;;;;;;;2.07;1.90;;;26.20;29.10;;;;;;5030389;28;20680;-49
2022/04/12 10:26:50;;;;;;;2.63;1.87;;;26.30;29.30;;;;;;5029727;28;20665;-51
2022/04/12 10:29:16;;;;;;;2.43;2.20;;;26.40;29.10;;;;;;5030437;28;20420;-51
2022/04/12 10:32:02;;;;;;;1.50;1.40;;;26.50;28.90;;;;;;5031487;28;20420;-51
2022/04/12 10:34:28;;;;;;;1.93;1.73;;;26.80;29.00;;;;;;5034039;28;20726;-51
2022/04/12 10:37:20;;;;;;;1.83;1.73;;;27.00;28.00;;;;;;5034287;28;20416;-51
2022/04/12 10:39:49;;;;;;;2.03;1.87;;;27.30;27.70;;;;;;5030802;28;20245;-51
2022/04/12 10:42:23;;;;;;;2.27;2.07;;;27.50;27.80;;;;;;5034155;28;20436;-51
2022/04/12 10:44:56;;;;;;;3.47;1.53;;;27.70;26.50;;;;;;5024960;28;20488;-48
2022/04/12 10:47:36;;;;;;;2.10;1.80;;;27.80;26.90;;;;;;5005285;28;20425;-49
2022/04/12 10:50:08;;;;;;;2.80;2.43;;;27.90;27.90;;;;;;5033634;28;20943;-49
2022/04/12 10:52:41;;;;;;;2.60;2.40;;;27.90;26.70;;;;;;5034185;28;20435;-48
2022/04/12 10:55:16;;;;;;;2.27;2.00;;;27.80;26.40;;;;;;5033101;28;20435;-48
2022/04/12 10:57:42;;;;;;;4.20;1.97;;;27.80;26.40;;;;;;5034217;28;20439;-48
2022/04/12 11:00:10;;;;;;;1.80;1.70;;;27.80;27.00;;;;;;5033390;28;20420;-50
2022/04/12 11:02:40;;;;;;;2.13;1.67;;;28.10;29.00;;;;;;5033903;28;20442;-51
2022/04/12 11:05:27;;;;;;;1.90;1.70;;;28.30;26.30;;;;;;5032890;28;20523;-51
2022/04/12 11:07:52;;;;;;;2.23;1.50;;;28.40;26.40;;;;;;5033439;28;21222;-47
2022/04/12 11:10:20;;;;;;;2.10;1.90;;;28.70;27.10;;;;;;5033540;28;20420;-47
2022/04/12 11:12:48;;;;;;;3.53;1.60;;;28.80;25.00;;;;;;5033858;28;20201;-51
2022/04/12 11:15:24;;;;;;;1.77;1.50;;;28.90;25.60;;;;;;5031152;28;20428;-46
2022/04/12 11:18:13;;;;;;;2.23;1.80;;;29.00;25.40;;;;;;5033460;28;20432;-47
2022/04/12 11:20:57;;;;;;;1.80;1.70;;;29.10;25.00;;;;;;5033231;28;20919;-47
2022/04/12 11:23:57;;;;;;;2.60;1.60;;;29.20;25.10;;;;;;5033500;28;20960;-47
2022/04/12 11:26:50;;;;;;;1.63;1.27;;;29.30;24.90;;;;;;5032708;28;20439;-46
2022/04/12 11:29:21;;;;;;;1.43;1.33;;;29.00;24.80;;;;;;5033462;28;20803;-51
2022/04/12 11:31:50;;;;;;;2.00;1.80;;;29.10;25.10;;;;;;5031462;28;20816;-49
2022/04/12 11:34:17;;;;;;;1.77;1.40;;;29.20;25.30;;;;;;5032966;28;20950;-48
2022/04/12 11:36:52;;;;;;;1.83;1.57;;;29.00;23.80;;;;;;5032380;28;20809;-52
2022/04/12 11:39:22;;;;;;;2.10;1.40;;;28.60;23.60;;;;;;5033230;28;20439;-48
2022/04/12 11:41:49;;;;;;;1.63;1.53;;;28.60;24.20;;;;;;5030799;28;20438;-47
2022/04/12 11:44:15;;;;;;;1.97;1.40;;;28.60;23.90;;;;;;5028655;28;21052;-47
2022/04/12 11:46:41;;;;;;;1.70;1.50;;;28.50;25.00;;;;;;5008696;28;20421;-47
2022/04/12 11:49:08;;;;;;;1.80;1.70;;;28.50;25.10;;;;;;5008625;28;20440;-48
2022/04/12 11:51:43;;;;;;;2.97;1.17;;;28.70;24.50;;;;;;5012808;28;20433;-47
2022/04/12 11:54:24;;;;;;;1.93;1.40;;;28.90;25.00;;;;;;5013140;28;20444;-49
2022/04/12 11:57:11;;;;;;;1.93;1.40;;;29.20;25.40;;;;;;5012377;28;20445;-50
2022/04/12 11:59:44;;;;;;;1.80;1.53;;;29.10;24.30;;;;;;5012637;28;20793;-47
2022/04/12 12:02:11;;;;;;;2.80;1.43;;;29.30;24.30;;;;;;5013073;28;20424;-47
2022/04/12 12:04:43;;;;;;;1.30;1.20;;;29.30;24.20;;;;;;5012294;28;20481;-50
2022/04/12 12:07:10;;;;;;;1.83;1.23;;;29.30;23.60;;;;;;5012546;28;20435;-49
2022/04/12 12:09:36;;;;;;;2.40;1.53;;;28.90;23.20;;;;;;5010962;28;20443;-47
2022/04/12 12:12:05;;;;;;;1.60;1.50;;;28.50;23.50;;;;;;5012782;28;20436;-51
2022/04/12 12:14:31;;;;;;;1.20;1.10;;;28.40;24.10;;;;;;5012385;28;20421;-52
2022/04/12 12:17:09;;;;;;;1.40;1.30;;;28.70;24.20;;;;;;5012311;28;20439;-52
2022/04/12 12:19:39;;;;;;;2.33;1.33;;;28.50;24.00;;;;;;5012527;28;20432;-50
2022/04/12 12:22:12;;;;;;;1.33;1.23;;;28.20;24.40;;;;;;5012678;28;20519;-49
2022/04/12 12:24:55;;;;;;;4.60;1.47;;;28.30;24.30;;;;;;5012014;28;20524;-47
2022/04/12 12:27:28;;;;;;;1.70;1.60;;;28.50;23.90;;;;;;5012798;28;20448;-47
2022/04/12 12:30:04;;;;;;;1.47;1.37;;;28.20;24.40;;;;;;5012026;28;20491;-48
2022/04/12 12:32:38;;;;;;;1.93;1.70;;;28.10;24.70;;;;;;5011615;28;20878;-47
2022/04/12 12:35:12;;;;;;;2.47;1.30;;;28.30;24.90;;;;;;5010109;28;20456;-46
2022/04/12 12:37:39;;;;;;;1.60;1.50;;;28.60;24.60;;;;;;5012493;28;20441;-48
2022/04/12 12:40:20;;;;;;;2.50;1.57;;;28.70;24.50;;;;;;5012288;28;20987;-47
2022/04/12 12:42:47;;;;;;;4.43;1.57;;;28.80;24.40;;;;;;5012082;28;20937;-48
2022/04/12 12:45:18;;;;;;;2.90;1.30;;;28.80;24.40;;;;;;5011227;28;20572;-48
2022/04/12 12:47:46;;;;;;;2.10;1.30;;;28.90;24.20;;;;;;5007385;28;20482;-47
2022/04/12 12:50:17;;;;;;;2.27;1.50;;;29.00;24.90;;;;;;5031543;28;20482;-47
2022/04/12 12:52:43;;;;;;;4.60;1.60;;;28.80;25.10;;;;;;5031596;28;20786;-47
2022/04/12 12:55:14;;;;;;;1.60;1.47;;;28.70;25.50;;;;;;5030227;28;20816;-48